createdAt,value
2023-05-19T00:01:00.532Z,99223.75
2023-05-19T00:03:28.870Z,99215.22
2023-05-19T00:05:59.218Z,99216.47
2023-05-19T00:08:31.481Z,99220.66
2023-05-19T00:12:13.537Z,99213.88
2023-05-19T00:14:41.362Z,99212.34
2023-05-19T00:18:23.382Z,99218.28
2023-05-19T00:20:52.348Z,99211.16
2023-05-19T00:24:35.520Z,99216.41
2023-05-19T00:27:02.947Z,99213.78
2023-05-19T00:30:45.818Z,99217.13
2023-05-19T00:34:28.557Z,99206.59
2023-05-19T00:36:56.079Z,99215.28
2023-05-19T00:39:23.776Z,99212.56
2023-05-19T00:41:51.049Z,99205.81
2023-05-19T00:44:18.518Z,99208.47
2023-05-19T00:46:46.564Z,99211.03
2023-05-19T00:49:14.059Z,99207.00
2023-05-19T00:51:41.894Z,99208.75
2023-05-19T00:54:09.912Z,99201.25
2023-05-19T00:56:38.053Z,99207.88
2023-05-19T00:59:06.017Z,99206.38
2023-05-19T01:01:33.564Z,99197.97
2023-05-19T01:04:23.491Z,99194.09
2023-05-19T01:06:55.502Z,99195.69
2023-05-19T01:09:23.608Z,99197.84
2023-05-19T01:11:51.559Z,99200.50
2023-05-19T01:14:20.816Z,99199.19
2023-05-19T01:17:27.618Z,99195.75
2023-05-19T01:20:25.948Z,99199.47
2023-05-19T01:23:24.149Z,99197.06
2023-05-19T01:27:07.455Z,99196.91
2023-05-19T01:30:50.703Z,99202.34
2023-05-19T01:33:21.303Z,99211.06
2023-05-19T01:35:51.117Z,99211.81
2023-05-19T01:39:33.818Z,99217.84
2023-05-19T01:43:16.758Z,99214.06
2023-05-19T01:47:00.003Z,99215.47
2023-05-19T01:50:42.597Z,99213.00
2023-05-19T01:54:25.260Z,99203.00
2023-05-19T01:58:07.783Z,99208.00
2023-05-19T02:01:50.773Z,99210.06
2023-05-19T02:04:42.768Z,99204.28
2023-05-19T02:07:26.585Z,99201.19
2023-05-19T02:11:09.996Z,99204.84
2023-05-19T02:14:53.201Z,99204.31
2023-05-19T02:17:23.369Z,99206.03
2023-05-19T02:20:06.738Z,99199.94
2023-05-19T02:22:34.742Z,99202.13
2023-05-19T02:25:02.703Z,99207.94
2023-05-19T02:27:36.041Z,99205.22
2023-05-19T02:30:06.235Z,99210.81
2023-05-19T02:32:34.099Z,99203.09
2023-05-19T02:35:01.347Z,99210.16
2023-05-19T02:37:29.273Z,99201.84
2023-05-19T02:39:56.879Z,99205.16
2023-05-19T02:42:24.147Z,99198.41
2023-05-19T02:44:54.591Z,99203.91
2023-05-19T02:47:24.823Z,99209.19
2023-05-19T02:49:52.036Z,99203.13
2023-05-19T02:52:19.590Z,99204.41
2023-05-19T02:54:47.191Z,99204.41
2023-05-19T02:57:14.588Z,99200.47
2023-05-19T02:59:42.850Z,99189.59
2023-05-19T03:02:10.550Z,99191.38
2023-05-19T03:04:41.915Z,99195.13
2023-05-19T03:07:11.101Z,99187.63
2023-05-19T03:09:38.900Z,99188.34
2023-05-19T03:12:07.821Z,99188.34
2023-05-19T03:14:38.788Z,99189.28
2023-05-19T03:17:10.258Z,99188.88
2023-05-19T03:19:37.905Z,99194.31
2023-05-19T03:22:05.613Z,99191.97
2023-05-19T03:24:34.896Z,99194.84
2023-05-19T03:27:05.929Z,99193.78
2023-05-19T03:29:33.784Z,99195.91
2023-05-19T03:32:01.746Z,99191.72
2023-05-19T03:34:29.180Z,99198.81
2023-05-19T03:37:08.806Z,99195.75
2023-05-19T03:39:40.491Z,99199.59
2023-05-19T03:42:07.841Z,99197.53
2023-05-19T03:44:36.070Z,99186.41
2023-05-19T03:47:03.553Z,99183.34
2023-05-19T03:50:01.272Z,99192.63
2023-05-19T03:52:57.965Z,99189.78
2023-05-19T03:55:30.586Z,99190.56
2023-05-19T03:57:57.919Z,99192.47
2023-05-19T04:00:25.139Z,99194.94
2023-05-19T04:02:52.508Z,99195.19
2023-05-19T04:05:19.797Z,99195.75
2023-05-19T04:07:47.149Z,99198.97
2023-05-19T04:10:14.408Z,99200.34
2023-05-19T04:12:41.686Z,99207.09
2023-05-19T04:15:11.968Z,99209.59
2023-05-19T04:17:39.767Z,99199.25
2023-05-19T04:20:08.046Z,99198.13
2023-05-19T04:22:35.327Z,99207.38
2023-05-19T04:25:04.514Z,99206.84
2023-05-19T04:27:32.049Z,99209.22
2023-05-19T04:30:00.009Z,99211.94
2023-05-19T04:32:27.210Z,99207.00
2023-05-19T04:34:56.008Z,99206.84
2023-05-19T04:37:26.710Z,99209.38
2023-05-19T04:39:54.704Z,99218.47
2023-05-19T04:42:26.097Z,99219.03
2023-05-19T04:44:54.297Z,99219.91
2023-05-19T04:47:28.004Z,99224.84
2023-05-19T04:49:55.463Z,99223.78
2023-05-19T04:52:24.022Z,99231.16
2023-05-19T04:54:52.859Z,99219.31
2023-05-19T04:57:20.306Z,99222.72
2023-05-19T04:59:47.981Z,99225.72
2023-05-19T05:02:16.347Z,99220.56
2023-05-19T05:04:46.479Z,99218.50
2023-05-19T05:07:14.382Z,99217.38
2023-05-19T05:09:42.592Z,99222.19
2023-05-19T05:12:13.027Z,99221.41
2023-05-19T05:14:42.002Z,99223.22
2023-05-19T05:17:13.199Z,99218.50
2023-05-19T05:19:41.585Z,99218.13
2023-05-19T05:22:10.108Z,99217.56
2023-05-19T05:24:41.203Z,99211.41
2023-05-19T05:27:10.202Z,99210.28
2023-05-19T05:29:38.013Z,99210.16
2023-05-19T05:32:08.013Z,99208.09
2023-05-19T05:34:37.617Z,99204.78
2023-05-19T05:37:05.830Z,99205.59
2023-05-19T05:39:33.986Z,99205.06
2023-05-19T05:42:01.627Z,99207.06
2023-05-19T05:44:29.468Z,99213.88
2023-05-19T05:46:58.080Z,99212.16
2023-05-19T05:49:25.908Z,99214.09
2023-05-19T05:54:30.261Z,99214.69
2023-05-19T05:56:58.308Z,99218.38
2023-05-19T05:59:25.616Z,99223.03
2023-05-19T06:01:52.872Z,99218.19
2023-05-19T06:04:21.410Z,99213.31
2023-05-19T06:06:49.072Z,99217.03
2023-05-19T06:09:21.544Z,99214.38
2023-05-19T06:11:49.100Z,99212.88
2023-05-19T06:14:17.202Z,99219.88
2023-05-19T06:17:12.374Z,99211.28
2023-05-19T06:19:39.634Z,99216.41
2023-05-19T06:22:07.796Z,99205.81
2023-05-19T06:24:36.235Z,99213.78
2023-05-19T06:27:04.594Z,99204.94
2023-05-19T06:29:31.856Z,99209.75
2023-05-19T06:32:02.607Z,99205.59
2023-05-19T06:34:31.231Z,99205.44
2023-05-19T06:36:59.306Z,99205.13
2023-05-19T06:39:26.839Z,99214.00
2023-05-19T06:41:54.016Z,99208.44
2023-05-19T06:44:44.183Z,99213.69
2023-05-19T06:47:12.730Z,99207.59
2023-05-19T06:49:39.975Z,99210.38
2023-05-19T06:52:08.184Z,99214.38
2023-05-19T06:54:35.864Z,99213.19
2023-05-19T06:57:03.947Z,99217.31
2023-05-19T06:59:31.225Z,99218.66
2023-05-19T07:02:00.030Z,99207.88
2023-05-19T07:04:27.509Z,99212.16
2023-05-19T07:06:56.563Z,99202.72
2023-05-19T07:09:24.614Z,99201.38
2023-05-19T07:11:52.998Z,99208.19
2023-05-19T07:14:21.032Z,99213.69
2023-05-19T07:16:48.633Z,99209.91
2023-05-19T07:19:16.154Z,99210.78
2023-05-19T07:21:51.741Z,99209.59
2023-05-19T07:24:21.453Z,99208.16
2023-05-19T07:26:49.577Z,99206.19
2023-05-19T07:29:17.227Z,99213.09
2023-05-19T07:31:44.501Z,99205.75
2023-05-19T07:34:11.876Z,99205.34
2023-05-19T07:36:39.300Z,99192.97
2023-05-19T07:39:09.262Z,99199.56
2023-05-19T07:41:36.696Z,99209.06
2023-05-19T07:44:07.786Z,99192.66
2023-05-19T07:46:35.973Z,99200.91
2023-05-19T07:49:04.269Z,99195.91
2023-05-19T07:51:31.903Z,99197.56
2023-05-19T07:53:59.537Z,99195.59
2023-05-19T07:56:27.371Z,99198.09
2023-05-19T07:58:54.785Z,99188.31
2023-05-19T08:01:22.138Z,99194.47
2023-05-19T08:03:49.888Z,99196.34
2023-05-19T08:06:17.472Z,99187.66
2023-05-19T08:08:45.292Z,99191.41
2023-05-19T08:11:13.058Z,99190.78
2023-05-19T08:13:41.188Z,99193.44
2023-05-19T08:16:08.682Z,99182.47
2023-05-19T08:18:36.033Z,99177.59
2023-05-19T08:21:03.484Z,99176.75
2023-05-19T08:23:30.994Z,99177.28
2023-05-19T08:25:58.506Z,99187.19
2023-05-19T08:28:26.206Z,99173.09
2023-05-19T08:30:53.593Z,99172.75
2023-05-19T08:33:21.644Z,99167.69
2023-05-19T08:35:49.057Z,99172.69
2023-05-19T08:38:16.434Z,99169.31
2023-05-19T08:40:48.326Z,99168.09
2023-05-19T08:43:15.968Z,99166.44
2023-05-19T08:45:48.217Z,99168.59
2023-05-19T08:48:19.389Z,99161.53
2023-05-19T08:51:22.125Z,99160.28
2023-05-19T08:53:59.626Z,99166.00
2023-05-19T08:56:27.986Z,99169.72
2023-05-19T08:59:00.298Z,99168.09
2023-05-19T09:01:30.239Z,99173.34
2023-05-19T09:03:58.626Z,99174.09
2023-05-19T09:06:27.534Z,99164.16
2023-05-19T09:08:54.888Z,99162.88
2023-05-19T09:11:22.670Z,99161.38
2023-05-19T09:13:50.783Z,99163.38
2023-05-19T09:16:18.495Z,99158.69
2023-05-19T09:19:04.375Z,99161.63
2023-05-19T09:21:33.075Z,99161.91
2023-05-19T09:24:08.406Z,99149.84
2023-05-19T09:26:45.422Z,99157.38
2023-05-19T09:29:19.298Z,99159.84
2023-05-19T09:32:01.068Z,99164.44
2023-05-19T09:34:32.132Z,99164.13
2023-05-19T09:36:59.875Z,99161.13
2023-05-19T09:39:28.815Z,99168.09
2023-05-19T09:41:59.470Z,99158.72
2023-05-19T09:44:31.332Z,99156.16
2023-05-19T09:47:00.047Z,99156.56
2023-05-19T09:49:30.143Z,99155.59
2023-05-19T09:52:06.329Z,99157.41
2023-05-19T09:54:34.816Z,99148.13
2023-05-19T09:57:08.557Z,99143.31
2023-05-19T09:59:39.103Z,99141.63
2023-05-19T10:02:18.439Z,99142.97
2023-05-19T10:04:47.489Z,99150.97
2023-05-19T10:07:15.383Z,99146.53
2023-05-19T10:09:47.953Z,99150.75
2023-05-19T10:12:15.544Z,99146.13
2023-05-19T10:14:42.933Z,99150.81
2023-05-19T10:17:12.265Z,99144.28
2023-05-19T10:19:40.404Z,99147.78
2023-05-19T10:22:07.616Z,99143.19
2023-05-19T10:24:34.876Z,99149.41
2023-05-19T10:27:11.912Z,99148.31
2023-05-19T10:29:50.329Z,99150.31
2023-05-19T10:32:28.622Z,99150.94
2023-05-19T10:35:24.242Z,99150.19
2023-05-19T10:38:32.289Z,99141.09
2023-05-19T10:41:11.921Z,99139.75
2023-05-19T10:44:08.145Z,99148.97
2023-05-19T10:46:37.741Z,99138.38
2023-05-19T10:49:05.003Z,99139.53
2023-05-19T10:51:34.392Z,99140.84
2023-05-19T10:54:06.236Z,99137.78
2023-05-19T10:56:36.183Z,99141.00
2023-05-19T10:59:04.150Z,99129.81
2023-05-19T11:01:37.270Z,99133.94
2023-05-19T11:04:12.317Z,99136.78
2023-05-19T11:06:41.163Z,99134.81
2023-05-19T11:09:15.913Z,99135.16
2023-05-19T11:11:55.343Z,99138.75
2023-05-19T11:14:27.931Z,99136.84
2023-05-19T11:17:00.621Z,99134.53
2023-05-19T11:19:35.391Z,99138.03
2023-05-19T11:22:14.262Z,99139.38
2023-05-19T11:24:49.992Z,99136.22
2023-05-19T11:27:40.224Z,99130.28
2023-05-19T11:30:14.855Z,99133.16
2023-05-19T11:32:44.204Z,99131.97
2023-05-19T11:35:12.036Z,99133.94
2023-05-19T11:37:41.514Z,99139.06
2023-05-19T11:41:05.828Z,99141.06
2023-05-19T11:44:48.323Z,99132.50
2023-05-19T11:47:17.271Z,99139.50
2023-05-19T11:49:57.732Z,99133.41
2023-05-19T11:52:27.534Z,99125.69
2023-05-19T11:56:11.033Z,99120.88
2023-05-19T11:59:53.981Z,99120.31
2023-05-19T12:03:37.155Z,99108.28
2023-05-19T12:06:08.416Z,99115.97
2023-05-19T12:08:36.584Z,99110.91
2023-05-19T12:12:19.747Z,99123.56
2023-05-19T12:16:02.951Z,99118.31
2023-05-19T12:19:45.845Z,99124.81
2023-05-19T12:22:16.185Z,99110.25
2023-05-19T12:24:46.619Z,99120.78
2023-05-19T12:28:29.733Z,99120.34
2023-05-19T12:30:58.521Z,99128.06
2023-05-19T12:33:26.254Z,99122.06
2023-05-19T12:35:54.690Z,99126.31
2023-05-19T12:38:22.922Z,99125.09
2023-05-19T12:40:50.792Z,99121.50
2023-05-19T12:43:25.622Z,99114.31
2023-05-19T12:45:53.416Z,99114.78
2023-05-19T12:48:22.953Z,99125.69
2023-05-19T12:50:54.190Z,99135.56
2023-05-19T12:53:21.495Z,99126.97
2023-05-19T12:55:48.694Z,99115.00
2023-05-19T12:58:16.556Z,99115.38
2023-05-19T13:00:48.455Z,99121.63
2023-05-19T13:03:20.341Z,99126.09
2023-05-19T13:05:51.098Z,99123.09
2023-05-19T13:08:23.972Z,99119.38
2023-05-19T13:10:51.579Z,99125.06
2023-05-19T13:13:19.319Z,99115.50
2023-05-19T13:15:50.795Z,99110.16
2023-05-19T13:18:18.817Z,99113.91
2023-05-19T13:20:47.391Z,99114.03
2023-05-19T13:23:17.005Z,99107.41
2023-05-19T13:25:45.223Z,99099.22
2023-05-19T13:28:13.258Z,99108.56
2023-05-19T13:30:45.991Z,99091.88
2023-05-19T13:33:13.518Z,99105.00
2023-05-19T13:35:41.064Z,99100.00
2023-05-19T13:38:10.628Z,99102.63
2023-05-19T13:40:40.137Z,99107.88
2023-05-19T13:43:08.806Z,99094.50
2023-05-19T13:45:36.961Z,99095.13
2023-05-19T13:48:04.790Z,99097.50
2023-05-19T13:50:32.048Z,99089.47
2023-05-19T13:52:59.664Z,99089.91
2023-05-19T13:55:27.470Z,99086.22
2023-05-19T13:57:55.189Z,99093.84
2023-05-19T14:00:23.018Z,99086.13
2023-05-19T14:02:50.406Z,99086.63
2023-05-19T14:05:18.001Z,99082.50
2023-05-19T14:07:46.629Z,99087.03
2023-05-19T14:10:13.871Z,99072.75
2023-05-19T14:13:06.480Z,99077.28
2023-05-19T14:15:29.457Z,99070.13
2023-05-19T14:17:58.935Z,99065.56
2023-05-19T14:20:28.665Z,99064.31
2023-05-19T14:22:57.209Z,99064.19
2023-05-19T14:25:25.086Z,99061.94
2023-05-19T14:27:52.405Z,99064.41
2023-05-19T14:30:21.865Z,99059.19
2023-05-19T14:32:49.466Z,99059.66
2023-05-19T14:35:16.772Z,99060.72
2023-05-19T14:37:44.069Z,99065.13
2023-05-19T14:40:12.292Z,99069.50
2023-05-19T14:42:39.455Z,99064.25
2023-05-19T14:45:07.626Z,99065.50
2023-05-19T14:47:34.852Z,99064.78
2023-05-19T14:50:02.130Z,99068.78
2023-05-19T14:52:29.372Z,99072.00
2023-05-19T14:54:57.057Z,99070.72
2023-05-19T14:57:24.871Z,99076.19
2023-05-19T14:59:52.040Z,99079.34
2023-05-19T15:02:19.191Z,99078.88
2023-05-19T15:04:46.711Z,99076.94
2023-05-19T15:07:13.988Z,99076.28
2023-05-19T15:09:41.283Z,99067.16
2023-05-19T15:12:08.792Z,99069.91
2023-05-19T15:14:36.690Z,99067.38
2023-05-19T15:17:04.499Z,99068.59
2023-05-19T15:19:32.165Z,99057.25
2023-05-19T15:22:00.106Z,99065.56
2023-05-19T15:24:27.949Z,99070.28
2023-05-19T15:26:56.262Z,99063.06
2023-05-19T15:29:23.845Z,99067.38
2023-05-19T15:31:54.606Z,99059.03
2023-05-19T15:34:21.890Z,99058.75
2023-05-19T15:36:49.117Z,99055.78
2023-05-19T15:39:16.536Z,99047.28
2023-05-19T15:41:44.192Z,99038.31
2023-05-19T15:44:11.546Z,99038.84
2023-05-19T15:46:38.792Z,99032.09
2023-05-19T15:49:06.262Z,99030.81
2023-05-19T15:51:34.541Z,99027.63
2023-05-19T15:54:01.896Z,99028.66
2023-05-19T15:56:29.271Z,99031.59
2023-05-19T15:58:56.627Z,99028.75
2023-05-19T16:01:24.004Z,99025.97
2023-05-19T16:03:51.798Z,99024.38
2023-05-19T16:06:19.444Z,99020.63
2023-05-19T16:08:47.007Z,99022.97
2023-05-19T16:11:14.756Z,99014.94
2023-05-19T16:13:42.553Z,99007.88
2023-05-19T16:16:10.194Z,99006.81
2023-05-19T16:18:38.156Z,98996.66
2023-05-19T16:21:06.377Z,98985.91
2023-05-19T16:23:34.291Z,98999.59
2023-05-19T16:26:01.861Z,98983.72
2023-05-19T16:28:29.262Z,98985.13
2023-05-19T16:31:00.600Z,98993.72
2023-05-19T16:33:28.478Z,98982.84
2023-05-19T16:35:58.068Z,98989.06
2023-05-19T16:38:26.634Z,98987.94
2023-05-19T16:40:53.878Z,98986.81
2023-05-19T16:43:21.337Z,98987.78
2023-05-19T16:45:49.151Z,98986.63
2023-05-19T16:48:16.997Z,98984.50
2023-05-19T16:50:44.257Z,98980.88
2023-05-19T16:53:11.438Z,98974.19
2023-05-19T16:55:38.679Z,98978.22
2023-05-19T16:58:05.960Z,98969.53
2023-05-19T17:00:33.406Z,98981.28
2023-05-19T17:03:00.971Z,98975.78
2023-05-19T17:05:36.261Z,98969.00
2023-05-19T17:08:04.016Z,98981.28
2023-05-19T17:10:32.131Z,98972.34
2023-05-19T17:12:59.882Z,98976.38
2023-05-19T17:15:27.454Z,98982.72
2023-05-19T17:17:54.964Z,98972.28
2023-05-19T17:20:22.386Z,98969.31
2023-05-19T17:22:49.854Z,98963.75
2023-05-19T17:25:17.516Z,98966.72
2023-05-19T17:27:44.711Z,98962.81
2023-05-19T17:30:13.994Z,98972.09
2023-05-19T17:32:41.446Z,98970.75
2023-05-19T17:35:09.158Z,98968.00
2023-05-19T17:37:36.395Z,98966.75
2023-05-19T17:40:04.451Z,98966.69
2023-05-19T17:42:31.788Z,98967.38
2023-05-19T17:44:59.118Z,98961.28
2023-05-19T17:47:26.387Z,98957.06
2023-05-19T17:49:53.751Z,98964.81
2023-05-19T17:52:22.312Z,98950.91
2023-05-19T17:54:50.688Z,98949.50
2023-05-19T17:57:18.845Z,98952.50
2023-05-19T17:59:46.708Z,98961.41
2023-05-19T18:02:15.662Z,98959.25
2023-05-19T18:04:43.783Z,98961.13
2023-05-19T18:07:11.936Z,98961.66
2023-05-19T18:09:48.049Z,98956.44
2023-05-19T18:12:15.498Z,98950.84
2023-05-19T18:14:43.358Z,98959.03
2023-05-19T18:17:10.919Z,98948.16
2023-05-19T18:19:38.378Z,98953.09
2023-05-19T18:22:06.282Z,98949.47
2023-05-19T18:24:34.113Z,98949.84
2023-05-19T18:27:01.708Z,98952.34
2023-05-19T18:29:30.738Z,98947.88
2023-05-19T18:31:58.006Z,98947.22
2023-05-19T18:34:25.498Z,98935.44
2023-05-19T18:36:52.658Z,98942.13
2023-05-19T18:39:20.509Z,98936.41
2023-05-19T18:41:47.984Z,98944.34
2023-05-19T18:44:15.680Z,98941.34
2023-05-19T18:46:42.901Z,98940.31
2023-05-19T18:49:11.863Z,98939.25
2023-05-19T18:51:39.994Z,98935.22
2023-05-19T18:54:07.764Z,98937.91
2023-05-19T18:56:35.515Z,98946.66
2023-05-19T18:59:02.801Z,98945.75
2023-05-19T19:01:30.182Z,98941.25
2023-05-19T19:03:57.868Z,98943.28
2023-05-19T19:06:25.304Z,98941.13
2023-05-19T19:08:52.535Z,98944.19
2023-05-19T19:11:20.951Z,98954.44
2023-05-19T19:13:51.363Z,98949.44
2023-05-19T19:16:19.127Z,98954.88
2023-05-19T19:18:47.162Z,98951.38
2023-05-19T19:21:14.731Z,98954.25
2023-05-19T19:23:42.856Z,98960.13
2023-05-19T19:26:11.279Z,98964.75
2023-05-19T19:28:38.799Z,98962.13
2023-05-19T19:31:06.153Z,98966.66
2023-05-19T19:33:33.423Z,98968.50
2023-05-19T19:36:01.418Z,98964.16
2023-05-19T19:38:28.696Z,98947.97
2023-05-19T19:40:56.007Z,98960.59
2023-05-19T19:43:23.283Z,98959.06
2023-05-19T19:46:04.256Z,98953.41
2023-05-19T19:48:31.589Z,98959.19
2023-05-19T19:51:04.554Z,98958.72
2023-05-19T19:53:31.960Z,98956.13
2023-05-19T19:56:02.293Z,98957.78
2023-05-19T19:58:30.205Z,98951.88
2023-05-19T20:00:59.682Z,98953.41
2023-05-19T20:03:27.900Z,98959.06
2023-05-19T20:05:56.860Z,98956.59
2023-05-19T20:08:25.521Z,98963.31
2023-05-19T20:10:53.563Z,98961.56
2023-05-19T20:13:21.896Z,98955.13
2023-05-19T20:15:49.910Z,98957.00
2023-05-19T20:18:43.036Z,98953.09
2023-05-19T20:21:11.890Z,98951.75
2023-05-19T20:23:40.795Z,98949.50
2023-05-19T20:26:11.939Z,98949.41
2023-05-19T20:28:41.451Z,98957.34
2023-05-19T20:31:08.894Z,98951.03
2023-05-19T20:33:36.335Z,98957.88
2023-05-19T20:36:06.088Z,98956.69
2023-05-19T20:38:33.380Z,98955.59
2023-05-19T20:41:01.970Z,98952.75
2023-05-19T20:43:29.322Z,98951.78
2023-05-19T20:45:56.816Z,98956.69
2023-05-19T20:48:24.112Z,98951.88
2023-05-19T20:50:53.272Z,98951.25
2023-05-19T20:53:21.745Z,98948.94
2023-05-19T20:55:49.065Z,98942.88
2023-05-19T20:58:16.429Z,98945.59
2023-05-19T21:00:43.698Z,98941.88
2023-05-19T21:03:11.897Z,98950.78
2023-05-19T21:05:39.380Z,98948.84
2023-05-19T21:08:12.851Z,98946.13
2023-05-19T21:10:43.520Z,98945.13
2023-05-19T21:13:11.098Z,98944.59
2023-05-19T21:15:38.623Z,98950.94
2023-05-19T21:18:07.260Z,98950.19
2023-05-19T21:20:36.134Z,98944.44
2023-05-19T21:23:03.666Z,98946.31
2023-05-19T21:25:31.761Z,98940.69
2023-05-19T21:27:59.300Z,98936.38
2023-05-19T21:30:26.668Z,98931.78
2023-05-19T21:32:54.023Z,98940.31
2023-05-19T21:35:21.324Z,98933.09
2023-05-19T21:37:48.768Z,98929.16
2023-05-19T21:40:16.184Z,98933.66
2023-05-19T21:42:43.437Z,98925.25
2023-05-19T21:45:11.365Z,98925.38
2023-05-19T21:47:38.933Z,98914.25
2023-05-19T21:50:08.039Z,98915.25
2023-05-19T21:52:36.530Z,98916.97
2023-05-19T21:55:04.535Z,98911.75
2023-05-19T21:57:31.696Z,98910.88
2023-05-19T21:59:58.906Z,98901.72
2023-05-19T22:02:26.617Z,98905.06
2023-05-19T22:04:54.080Z,98903.59
2023-05-19T22:07:26.792Z,98907.22
2023-05-19T22:09:54.635Z,98904.63
2023-05-19T22:12:24.194Z,98898.06
2023-05-19T22:14:52.171Z,98900.25
2023-05-19T22:17:19.598Z,98906.53
2023-05-19T22:19:47.310Z,98907.56
2023-05-19T22:22:15.479Z,98900.66
2023-05-19T22:24:43.611Z,98909.00
2023-05-19T22:27:11.584Z,98906.81
2023-05-19T22:29:39.130Z,98910.28
2023-05-19T22:32:12.309Z,98913.97
2023-05-19T22:34:40.316Z,98908.34
2023-05-19T22:37:07.801Z,98903.97
2023-05-19T22:39:34.958Z,98896.13
2023-05-19T22:42:02.635Z,98903.81
2023-05-19T22:44:29.876Z,98901.28
2023-05-19T22:46:57.088Z,98898.50
2023-05-19T22:49:24.336Z,98894.41
2023-05-19T22:51:52.122Z,98890.63
2023-05-19T22:54:19.942Z,98892.50
2023-05-19T22:56:49.035Z,98899.69
2023-05-19T22:59:17.918Z,98896.56
2023-05-19T23:01:46.534Z,98899.69
2023-05-19T23:04:15.309Z,98893.94
2023-05-19T23:06:42.762Z,98903.25
2023-05-19T23:09:18.002Z,98900.63
2023-05-19T23:11:46.246Z,98900.22
2023-05-19T23:14:14.056Z,98902.09
2023-05-19T23:16:41.536Z,98890.34
2023-05-19T23:19:09.497Z,98896.72
2023-05-19T23:21:37.390Z,98889.47
2023-05-19T23:24:06.688Z,98881.31
2023-05-19T23:26:34.022Z,98877.53
2023-05-19T23:29:01.183Z,98876.00
2023-05-19T23:31:28.647Z,98880.56
2023-05-19T23:33:55.971Z,98876.38
2023-05-19T23:36:23.482Z,98872.69
2023-05-19T23:38:50.935Z,98877.06
2023-05-19T23:41:18.073Z,98872.53
2023-05-19T23:43:45.282Z,98874.41
2023-05-19T23:46:12.653Z,98865.72
2023-05-19T23:48:39.962Z,98865.84
2023-05-19T23:51:07.816Z,98870.19
2023-05-19T23:53:35.485Z,98871.53
2023-05-19T23:56:02.688Z,98868.41
2023-05-19T23:58:29.939Z,98864.84
